Time;durP1;ratioP1;P1;durP2;ratioP2;P2;SDS_P1;SDS_P2;PMS_P1;PMS_P2;Temp;Humidity;BMP_temperature;BMP_pressure;BME280_temperature;BME280_humidity;BME280_pressure;Samples;Min_cycle;Max_cycle;Signal;HPM_P1;HPM_P2
2022/01/03 00:00:40;;;;;;;0.63;0.60;;;10.10;1.40;;;11.01;100.00;95505.19;647266;212;31497;-77
2022/01/03 00:03:22;;;;;;;0.80;0.30;;;10.20;1.40;;;11.03;100.00;95498.44;648805;212;32072;-79
2022/01/03 00:06:10;;;;;;;1.40;0.80;;;10.10;1.40;;;10.71;100.00;95486.38;637858;220;31871;-78
2022/01/03 00:08:54;;;;;;;3.40;0.70;;;9.80;1.40;;;10.80;100.00;95490.02;647142;212;31622;-79
2022/01/03 00:11:35;;;;;;;2.00;0.60;;;9.80;1.40;;;10.79;100.00;95485.16;647802;212;31585;-78
2022/01/03 00:14:17;;;;;;;1.30;0.77;;;9.90;1.40;;;10.89;100.00;95489.16;646721;212;31547;-78
2022/01/03 00:17:00;;;;;;;0.80;0.50;;;9.90;1.40;;;10.79;100.00;95475.62;647518;216;31500;-79
2022/01/03 00:19:48;;;;;;;1.20;0.60;;;9.90;1.40;;;10.94;100.00;95474.13;646992;216;31512;-79
2022/01/03 00:22:32;;;;;;;1.50;0.50;;;10.10;1.40;;;10.77;100.00;95476.23;646787;216;31510;-76
2022/01/03 00:25:16;;;;;;;1.70;0.60;;;9.80;1.40;;;10.73;100.00;95478.91;646544;216;31560;-75
2022/01/03 00:28:04;;;;;;;0.60;0.60;;;9.80;1.40;;;10.80;100.00;95477.00;647013;216;31513;-77
2022/01/03 00:30:46;;;;;;;0.60;0.60;;;9.90;1.40;;;10.88;100.00;95469.02;631630;217;31805;-76
2022/01/03 00:35:53;;;;;;;0.80;0.50;;;9.80;1.40;;;10.61;100.00;95481.89;620815;226;31880;-78
2022/01/03 00:38:36;;;;;;;0.90;0.43;;;9.80;1.40;;;10.72;100.00;95478.55;648256;216;31503;-75
2022/01/03 00:41:20;;;;;;;1.00;0.73;;;9.80;1.40;;;10.53;100.00;95486.20;647264;212;31523;-78
2022/01/03 00:44:01;;;;;;;0.90;0.90;;;9.60;1.40;;;10.58;100.00;95491.79;646832;216;31508;-78
2022/01/03 00:46:49;;;;;;;0.70;0.50;;;9.70;1.40;;;10.56;100.00;95484.35;646773;212;31807;-76
2022/01/03 00:49:39;;;;;;;0.60;0.50;;;9.70;1.40;;;10.71;100.00;95485.80;647686;216;31479;-78
2022/01/03 00:52:21;;;;;;;0.80;0.57;;;9.80;1.40;;;10.73;100.00;95485.80;647278;212;31483;-78
2022/01/03 00:55:04;;;;;;;0.50;0.50;;;9.80;1.40;;;10.59;100.00;95484.71;648370;216;31449;-78
2022/01/03 00:58:13;;;;;;;0.70;0.60;;;9.70;1.40;;;10.59;100.00;95490.08;647773;216;31502;-78
2022/01/03 01:00:55;;;;;;;1.30;0.50;;;9.80;1.40;;;10.65;100.00;95473.56;647987;212;31453;-78
2022/01/03 01:03:43;;;;;;;1.10;0.60;;;9.70;1.40;;;10.49;100.00;95479.34;647774;216;31581;-78
2022/01/03 01:06:24;;;;;;;0.50;0.40;;;9.60;1.40;;;10.52;100.00;95471.27;641275;216;42273;-78
2022/01/03 01:09:06;;;;;;;0.90;0.50;;;9.70;1.40;;;10.35;100.00;95471.98;644977;216;31523;-77
2022/01/03 01:11:54;;;;;;;0.90;0.50;;;9.60;1.40;;;10.51;100.00;95475.51;647372;216;31655;-78
2022/01/03 01:14:35;;;;;;;1.70;0.60;;;9.60;1.40;;;10.69;100.00;95462.62;646608;212;32091;-77
2022/01/03 01:17:17;;;;;;;0.90;0.60;;;9.90;1.40;;;10.58;100.00;95463.05;620225;226;32016;-77
2022/01/03 01:20:01;;;;;;;0.60;0.50;;;9.70;1.40;;;10.67;100.00;95447.06;647181;212;42138;-77
2022/01/03 01:22:43;;;;;;;2.10;1.10;;;9.80;1.40;;;10.88;100.00;95442.49;647890;216;31794;-78
2022/01/03 01:27:46;;;;;;;2.30;0.70;;;10.00;1.40;;;10.93;100.00;95445.13;647927;216;31593;-78
2022/01/03 01:28:10;;;;;;;0.50;0.40;;;10.20;1.40;;;11.04;100.00;95447.12;620782;226;32471;-76
2022/01/03 01:30:52;;;;;;;0.80;0.60;;;10.30;1.40;;;11.25;100.00;95442.68;645987;215;31661;-78
2022/01/03 01:35:52;;;;;;;2.10;0.70;;;10.30;1.40;;;11.22;100.00;95457.97;647644;212;31503;-76
2022/01/03 01:41:07;;;;;;;0.60;0.50;;;10.40;1.40;;;11.18;100.00;95464.67;648184;212;31466;-77
2022/01/03 01:46:24;;;;;;;1.10;1.00;;;10.30;1.40;;;11.12;100.00;95469.52;647068;216;31794;-78
2022/01/03 01:49:05;;;;;;;0.70;0.60;;;10.20;1.40;;;11.11;100.00;95482.94;647686;216;32065;-77
2022/01/03 01:51:46;;;;;;;2.80;0.60;;;10.30;1.40;;;11.09;100.00;95474.78;647792;216;32349;-77
2022/01/03 01:54:31;;;;;;;1.00;0.50;;;10.30;1.40;;;11.03;100.00;95479.86;646349;216;31528;-78
2022/01/03 01:57:18;;;;;;;0.60;0.50;;;10.20;1.40;;;11.02;100.00;95470.23;648470;212;31495;-77
2022/01/03 02:00:08;;;;;;;0.62;0.50;;;10.20;1.40;;;11.07;100.00;95453.63;619883;226;31908;-77
2022/01/03 02:03:14;;;;;;;1.27;0.70;;;10.20;1.40;;;11.05;100.00;95457.41;647425;216;31503;-78
2022/01/03 02:05:57;;;;;;;1.40;0.80;;;10.10;1.40;;;10.85;100.00;95454.91;614338;222;32025;-76
2022/01/03 02:08:39;;;;;;;1.00;0.57;;;10.00;1.40;;;10.76;100.00;95455.05;647778;216;32525;-77
2022/01/03 02:14:06;;;;;;;0.70;0.50;;;10.00;1.40;;;10.98;100.00;95460.36;620467;222;31835;-78
2022/01/03 02:16:47;;;;;;;0.90;0.33;;;10.10;1.40;;;10.92;100.00;95452.87;646966;216;32090;-79
2022/01/03 02:19:29;;;;;;;0.50;0.40;;;10.10;1.40;;;10.91;100.00;95450.33;647755;216;32021;-78
2022/01/03 02:22:14;;;;;;;1.90;0.50;;;10.00;1.40;;;10.87;100.00;95449.39;647042;212;31512;-78
2022/01/03 02:24:55;;;;;;;1.90;0.40;;;10.00;1.40;;;10.78;100.00;95453.36;647376;216;31502;-78
2022/01/03 02:27:37;;;;;;;0.60;0.40;;;9.90;1.40;;;10.60;100.00;95461.35;619873;226;31860;-77
2022/01/03 02:30:19;;;;;;;2.00;0.70;;;9.70;1.40;;;10.58;100.00;95459.95;647171;216;31521;-78
2022/01/03 02:33:00;;;;;;;0.80;0.30;;;9.70;1.40;;;10.51;100.00;95450.09;649084;216;31537;-78
2022/01/03 02:35:51;;;;;;;0.40;0.30;;;9.80;1.40;;;10.67;100.00;95466.84;647590;212;31582;-78
2022/01/03 02:38:33;;;;;;;1.20;0.40;;;9.80;1.40;;;10.70;100.00;95467.82;620220;226;31881;-75
2022/01/03 02:41:14;;;;;;;1.90;0.60;;;9.90;1.40;;;10.81;100.00;95435.93;646360;216;31485;-79
2022/01/03 02:44:02;;;;;;;1.10;0.60;;;9.90;1.40;;;10.66;100.00;95454.19;618917;226;31981;-76
2022/01/03 02:46:50;;;;;;;0.40;0.37;;;9.90;1.40;;;10.76;100.00;95446.53;647764;216;31502;-77
2022/01/03 02:49:32;;;;;;;3.20;0.50;;;9.90;1.40;;;10.77;100.00;95443.89;648567;212;31688;-78
2022/01/03 02:52:19;;;;;;;0.50;0.30;;;9.90;1.40;;;10.84;100.00;95431.52;646663;216;31577;-78
2022/01/03 02:55:09;;;;;;;0.40;0.33;;;10.00;1.40;;;10.79;100.00;95452.89;647969;216;31491;-78
2022/01/03 02:57:50;;;;;;;0.70;0.70;;;9.90;1.40;;;10.72;100.00;95476.39;648645;216;32029;-78
2022/01/03 03:00:37;;;;;;;0.80;0.50;;;9.90;1.40;;;10.73;100.00;95473.70;646421;216;31483;-79
2022/01/03 03:05:59;;;;;;;0.80;0.30;;;10.00;1.40;;;10.81;100.00;95479.47;644352;216;31632;-78
2022/01/03 03:08:41;;;;;;;0.60;0.50;;;10.00;1.40;;;10.84;100.00;95469.80;647863;216;31476;-79
2022/01/03 03:11:24;;;;;;;0.50;0.50;;;10.00;1.40;;;10.83;100.00;95454.10;647399;212;31758;-78
2022/01/03 03:14:12;;;;;;;1.30;0.50;;;10.10;1.40;;;10.85;100.00;95454.09;621329;222;31984;-78
2022/01/03 03:17:00;;;;;;;1.43;0.40;;;10.10;1.40;;;10.83;100.00;95461.91;618087;226;31859;-78
2022/01/03 03:19:53;;;;;;;0.60;0.30;;;10.00;1.40;;;10.74;100.00;95464.35;647909;212;31521;-79
2022/01/03 03:22:34;;;;;;;0.70;0.40;;;10.00;1.40;;;10.83;100.00;95472.70;646777;216;31480;-78
2022/01/03 03:25:16;;;;;;;0.47;0.40;;;10.00;1.40;;;10.78;100.00;95466.82;648120;216;31501;-76
2022/01/03 03:28:02;;;;;;;0.50;0.35;;;10.00;1.40;;;10.83;100.00;95464.08;620397;226;31982;-78
2022/01/03 03:30:44;;;;;;;1.60;0.50;;;10.00;1.40;;;10.80;100.00;95461.98;647393;216;31516;-77
2022/01/03 03:35:52;;;;;;;0.50;0.40;;;10.00;1.40;;;10.82;100.00;95466.16;646541;216;31496;-77
2022/01/03 03:38:33;;;;;;;0.80;0.40;;;10.00;1.40;;;10.90;100.00;95447.97;648698;216;31509;-78
2022/01/03 03:41:15;;;;;;;0.40;0.30;;;10.10;1.40;;;10.97;100.00;95463.40;647182;216;31685;-78
2022/01/03 03:43:57;;;;;;;0.80;0.30;;;10.10;1.40;;;10.90;100.00;95463.11;648482;216;31497;-78
2022/01/03 03:46:38;;;;;;;2.08;0.35;;;10.10;1.40;;;10.89;100.00;95463.03;619075;226;31859;-78
2022/01/03 03:51:55;;;;;;;0.40;0.30;;;10.00;1.40;;;10.83;100.00;95462.73;647447;216;31580;-76
2022/01/03 03:54:37;;;;;;;0.60;0.30;;;10.00;1.40;;;10.77;100.00;95465.05;647808;216;31491;-76
2022/01/03 03:57:19;;;;;;;2.10;0.40;;;9.90;1.40;;;10.81;100.00;95479.91;645884;216;31644;-78
2022/01/03 04:00:01;;;;;;;0.50;0.40;;;10.00;1.40;;;10.84;100.00;95460.27;647088;212;31476;-79
2022/01/03 04:02:43;;;;;;;1.50;0.40;;;10.10;1.40;;;10.82;100.00;95477.60;647864;213;32150;-78
2022/01/03 04:05:26;;;;;;;1.20;0.40;;;9.90;1.40;;;10.81;100.00;95473.66;645536;215;31526;-79
2022/01/03 04:08:14;;;;;;;2.40;0.40;;;10.00;1.40;;;10.82;100.00;95478.11;647657;212;31963;-77
2022/01/03 04:11:02;;;;;;;0.40;0.30;;;10.00;1.40;;;10.82;100.00;95493.08;646356;216;31505;-76
2022/01/03 04:13:49;;;;;;;1.70;0.63;;;10.00;1.40;;;10.89;100.00;95480.81;619397;222;31824;-77
2022/01/03 04:16:31;;;;;;;0.50;0.50;;;10.10;1.40;;;10.91;100.00;95483.20;646592;212;31519;-77
2022/01/03 04:19:13;;;;;;;0.50;0.40;;;10.10;1.40;;;10.82;100.00;95498.17;619891;222;31819;-78
2022/01/03 04:21:55;;;;;;;1.08;0.40;;;10.00;1.40;;;10.85;100.00;95491.05;646611;216;31460;-77
2022/01/03 04:24:36;;;;;;;1.90;0.47;;;10.00;1.40;;;10.80;100.00;95491.48;647868;216;31519;-77
2022/01/03 04:27:18;;;;;;;0.50;0.30;;;10.10;1.40;;;10.93;100.00;95475.84;648435;216;31506;-77
2022/01/03 04:30:00;;;;;;;0.50;0.40;;;10.10;1.40;;;10.83;100.00;95491.69;647452;216;31481;-78
2022/01/03 04:32:42;;;;;;;0.80;0.40;;;10.00;1.40;;;10.88;100.00;95490.55;646510;212;45462;-78
2022/01/03 04:35:51;;;;;;;1.55;1.45;;;10.00;1.40;;;10.79;100.00;95497.75;618713;222;31941;-77
2022/01/03 04:38:33;;;;;;;2.10;0.70;;;9.90;1.40;;;10.74;100.00;95504.48;647543;216;31591;-78
2022/01/03 04:41:20;;;;;;;0.40;0.23;;;9.90;1.40;;;10.72;100.00;95491.57;645803;216;31513;-78
2022/01/03 04:44:08;;;;;;;1.30;0.50;;;10.00;1.40;;;10.81;100.00;95478.01;646973;216;31497;-77
2022/01/03 04:46:53;;;;;;;0.70;0.60;;;10.00;1.40;;;10.73;100.00;95490.53;620891;226;31873;-78
2022/01/03 04:49:34;;;;;;;0.40;0.20;;;10.00;1.40;;;10.77;100.00;95482.78;645938;216;31646;-78
2022/01/03 04:52:15;;;;;;;0.60;0.50;;;10.00;1.40;;;10.75;100.00;95498.78;647540;216;31518;-77
2022/01/03 04:54:58;;;;;;;0.90;0.47;;;10.00;1.40;;;10.59;100.00;95486.83;647477;212;31477;-78
2022/01/03 04:57:38;;;;;;;0.65;0.50;;;9.80;1.40;;;10.68;100.00;95484.67;648151;212;31672;-77
2022/01/03 05:00:23;;;;;;;0.40;0.20;;;9.90;1.40;;;10.65;100.00;95491.23;619124;222;31844;-78
2022/01/03 05:03:05;;;;;;;0.70;0.30;;;9.80;1.40;;;10.69;100.00;95482.43;647476;216;31462;-79
2022/01/03 05:05:47;;;;;;;0.50;0.50;;;9.90;1.40;;;10.64;100.00;95488.59;640646;216;42273;-78
2022/01/03 05:08:31;;;;;;;0.50;0.30;;;9.80;1.40;;;10.54;100.00;95494.00;646556;212;31577;-77
2022/01/03 05:11:13;;;;;;;1.00;0.50;;;9.70;1.40;;;10.65;100.00;95497.36;646741;212;31570;-78
2022/01/03 05:14:04;;;;;;;0.60;0.30;;;9.80;1.40;;;10.55;100.00;95498.31;646978;216;31488;-78
2022/01/03 05:16:49;;;;;;;0.50;0.30;;;9.70;1.40;;;10.68;100.00;95496.55;647332;216;31478;-77
2022/01/03 05:19:29;;;;;;;0.40;0.30;;;9.80;1.40;;;10.60;100.00;95494.03;647938;216;31544;-78
2022/01/03 05:22:11;;;;;;;0.70;0.60;;;9.80;1.40;;;10.62;100.00;95493.20;619363;226;32054;-78
2022/01/03 05:24:52;;;;;;;0.77;0.35;;;9.70;1.40;;;10.59;100.00;95500.19;646271;216;31626;-77
2022/01/03 05:27:37;;;;;;;0.97;0.40;;;9.80;1.40;;;10.58;100.00;95494.34;648401;216;32112;-78
2022/01/03 05:30:16;;;;;;;0.65;0.30;;;9.70;1.40;;;10.59;100.00;95503.53;647790;212;42112;-79
2022/01/03 05:32:58;;;;;;;0.80;0.55;;;9.70;1.40;;;10.60;100.00;95483.54;620510;222;31820;-77
2022/01/03 05:35:57;;;;;;;0.60;0.40;;;9.80;1.40;;;10.61;100.00;95497.02;647241;212;31498;-79
2022/01/03 05:38:44;;;;;;;0.40;0.33;;;9.70;1.40;;;10.55;100.00;95506.98;646805;212;31739;-78
2022/01/03 05:41:29;;;;;;;0.40;0.30;;;9.80;1.40;;;10.52;100.00;95496.26;646016;216;31533;-76
2022/01/03 05:44:10;;;;;;;1.63;0.50;;;9.70;1.40;;;10.49;100.00;95495.23;646056;216;31501;-78
2022/01/03 05:46:53;;;;;;;0.50;0.40;;;9.70;1.40;;;10.55;100.00;95499.38;646472;213;31545;-78
2022/01/03 05:49:35;;;;;;;0.60;0.30;;;9.70;1.40;;;10.36;100.00;95490.49;620720;226;31961;-78
2022/01/03 05:52:20;;;;;;;1.10;0.50;;;9.50;1.40;;;10.47;100.00;95502.33;646852;216;31915;-78
2022/01/03 05:55:02;;;;;;;0.60;0.40;;;9.60;1.40;;;10.29;100.00;95492.26;619830;226;31880;-78
2022/01/03 05:57:44;;;;;;;1.07;0.40;;;9.50;1.40;;;10.44;100.00;95501.30;648568;216;31613;-78
2022/01/03 06:00:27;;;;;;;1.30;0.60;;;9.60;1.40;;;10.43;100.00;95495.69;647256;212;31792;-78
2022/01/03 06:03:07;;;;;;;1.00;0.50;;;9.60;1.40;;;10.46;100.00;95495.34;646001;212;31530;-78
2022/01/03 06:08:55;;;;;;;0.50;0.30;;;9.60;1.40;;;10.33;100.00;95501.71;620303;222;32437;-78
2022/01/03 06:11:35;;;;;;;0.50;0.30;;;9.50;1.40;;;10.43;100.00;95507.00;645413;212;31652;-77
2022/01/03 06:14:17;;;;;;;1.10;0.40;;;9.60;1.40;;;10.44;100.00;95517.46;646589;216;31657;-76
2022/01/03 06:16:59;;;;;;;0.50;0.50;;;9.60;1.40;;;10.37;100.00;95509.39;647301;212;31590;-78
2022/01/03 06:19:42;;;;;;;0.70;0.43;;;9.50;1.40;;;10.24;100.00;95503.30;620602;226;42463;-78
2022/01/03 06:22:27;;;;;;;1.10;0.47;;;9.40;1.40;;;10.27;100.00;95503.55;646364;216;31717;-78
2022/01/03 06:25:09;;;;;;;2.10;0.40;;;9.40;1.40;;;10.27;100.00;95511.84;646451;212;31478;-78
2022/01/03 06:27:51;;;;;;;0.90;0.40;;;9.50;1.40;;;10.30;100.00;95497.16;647607;216;31536;-78
2022/01/03 06:30:33;;;;;;;2.10;0.50;;;9.50;1.40;;;10.35;100.00;95496.73;618810;222;31822;-78
2022/01/03 06:35:51;;;;;;;0.68;0.43;;;9.40;1.40;;;10.36;100.00;95499.98;648782;216;32439;-78
2022/01/03 06:38:36;;;;;;;0.50;0.40;;;9.50;1.40;;;10.11;100.00;95512.28;646722;216;31487;-76
2022/01/03 06:41:24;;;;;;;2.70;0.43;;;9.30;1.40;;;10.17;100.00;95519.69;646913;212;31498;-78
2022/01/03 06:44:06;;;;;;;0.70;0.50;;;9.40;1.40;;;10.29;100.00;95511.59;647825;216;32433;-77
2022/01/03 06:46:51;;;;;;;0.70;0.60;;;9.40;1.40;;;10.15;100.00;95510.24;648755;216;31495;-77
2022/01/03 06:49:32;;;;;;;2.10;0.40;;;9.20;1.40;;;10.23;100.00;95510.73;619265;225;31838;-78
2022/01/03 06:52:14;;;;;;;0.70;0.60;;;9.40;1.40;;;10.28;100.00;95512.77;646315;216;31526;-79
2022/01/03 06:54:58;;;;;;;1.40;0.53;;;9.60;1.40;;;10.19;100.00;95512.81;647444;216;31495;-77
2022/01/03 06:57:42;;;;;;;4.00;0.80;;;9.30;1.40;;;10.22;100.00;95517.35;619668;226;31819;-78
2022/01/03 07:00:24;;;;;;;0.40;0.30;;;9.30;1.40;;;10.17;100.00;95523.80;647987;216;31685;-78
2022/01/03 07:03:06;;;;;;;0.40;0.20;;;9.30;1.40;;;10.26;100.00;95515.78;619625;226;31831;-78
2022/01/03 07:05:47;;;;;;;0.50;0.30;;;9.40;1.40;;;10.19;100.00;95524.63;641901;216;31863;-79
2022/01/03 07:08:29;;;;;;;1.00;0.40;;;9.30;1.40;;;10.15;100.00;95524.50;647293;216;31601;-78
2022/01/03 07:11:11;;;;;;;0.80;0.40;;;9.30;1.40;;;10.22;100.00;95532.31;619465;226;32148;-77
2022/01/03 07:14:04;;;;;;;0.80;0.40;;;9.40;1.40;;;10.30;100.00;95526.26;647182;212;31649;-76
2022/01/03 07:19:10;;;;;;;2.50;0.80;;;9.30;1.40;;;10.16;100.00;95513.75;646141;216;31546;-75
2022/01/03 07:22:00;;;;;;;3.40;0.40;;;9.30;1.40;;;10.17;100.00;95521.10;620335;222;31861;-81
2022/01/03 07:24:46;;;;;;;1.23;0.33;;;9.30;1.40;;;10.29;100.00;95527.69;618609;222;31811;-76
2022/01/03 07:27:28;;;;;;;0.50;0.40;;;9.40;1.40;;;10.24;100.00;95535.22;646436;216;31517;-76
2022/01/03 07:30:12;;;;;;;0.62;0.50;;;9.40;1.40;;;10.14;100.00;95524.09;646647;216;31480;-78
2022/01/03 07:32:54;;;;;;;0.60;0.30;;;9.30;1.40;;;10.13;100.00;95531.79;647810;216;31474;-78
2022/01/03 07:35:54;;;;;;;1.00;0.30;;;9.20;1.40;;;10.12;100.00;95529.53;646246;212;31523;-75
2022/01/03 07:38:36;;;;;;;0.70;0.40;;;9.20;1.40;;;10.06;100.00;95519.35;646503;216;31499;-76
2022/01/03 07:41:19;;;;;;;2.33;0.50;;;9.20;1.40;;;10.17;100.00;95533.61;620261;226;31864;-80
2022/01/03 07:44:07;;;;;;;2.40;0.73;;;9.40;1.40;;;10.19;100.00;95532.33;618404;226;31831;-77
2022/01/03 07:46:54;;;;;;;0.40;0.30;;;9.40;1.40;;;10.31;100.00;95528.09;641772;217;31534;-76
2022/01/03 07:49:33;;;;;;;2.10;0.50;;;9.40;1.40;;;10.24;100.00;95522.33;647314;216;31526;-75
2022/01/03 07:52:15;;;;;;;0.80;0.40;;;9.40;1.40;;;10.26;100.00;95530.78;619294;226;32026;-76
2022/01/03 07:54:57;;;;;;;0.40;0.30;;;9.40;1.40;;;10.22;100.00;95522.23;646257;216;31677;-76
2022/01/03 07:57:42;;;;;;;0.40;0.20;;;9.40;1.40;;;10.22;100.00;95526.02;646647;216;31515;-77
2022/01/03 08:00:23;;;;;;;1.60;0.77;;;9.40;1.40;;;10.27;100.00;95519.00;619457;222;31871;-76
2022/01/03 08:03:05;;;;;;;1.20;0.50;;;9.50;1.40;;;10.35;100.00;95520.97;647746;216;31513;-78
2022/01/03 08:05:47;;;;;;;0.40;0.30;;;9.50;1.40;;;10.39;100.00;95523.38;645633;216;31635;-76
2022/01/03 08:08:31;;;;;;;0.40;0.30;;;9.50;1.40;;;10.31;100.00;95514.98;646241;216;31479;-75
2022/01/03 08:11:13;;;;;;;0.40;0.23;;;9.50;1.40;;;10.33;100.00;95523.94;646955;212;31518;-78
2022/01/03 08:13:55;;;;;;;1.10;0.40;;;9.50;1.40;;;10.24;100.00;95513.71;646610;216;31519;-75
2022/01/03 08:16:39;;;;;;;0.57;0.50;;;9.40;1.40;;;10.34;100.00;95515.56;646996;212;31499;-79
2022/01/03 08:19:28;;;;;;;1.60;0.40;;;9.50;1.40;;;10.48;100.00;95517.81;620178;226;32327;-80
2022/01/03 08:22:17;;;;;;;2.60;0.30;;;9.70;1.40;;;10.57;100.00;95518.27;646358;212;31501;-75
2022/01/03 08:24:57;;;;;;;0.40;0.30;;;9.70;1.40;;;10.51;100.00;95521.64;646732;216;31550;-75
2022/01/03 08:27:39;;;;;;;0.50;0.30;;;9.70;1.40;;;10.60;100.00;95521.92;646429;216;31467;-75
2022/01/03 08:30:21;;;;;;;0.57;0.35;;;9.80;1.40;;;10.66;100.00;95529.98;646604;216;31524;-75
2022/01/03 08:35:51;;;;;;;0.50;0.40;;;9.70;1.40;;;10.71;100.00;95528.59;646681;212;31508;-78
2022/01/03 08:38:35;;;;;;;2.00;0.40;;;9.80;1.40;;;10.83;100.00;95522.22;647749;216;31623;-80
2022/01/03 08:41:18;;;;;;;0.40;0.40;;;10.00;1.40;;;10.84;100.00;95533.92;646619;212;31506;-76
2022/01/03 08:44:06;;;;;;;1.08;0.40;;;9.90;1.40;;;11.00;100.00;95528.66;647642;216;31479;-80
2022/01/03 08:46:54;;;;;;;2.50;0.40;;;10.00;1.40;;;10.97;100.00;95524.88;645590;216;31486;-76
2022/01/03 08:49:38;;;;;;;0.50;0.30;;;10.00;1.40;;;10.94;100.00;95514.98;647971;216;31528;-80
2022/01/03 08:52:26;;;;;;;0.57;0.23;;;10.00;1.40;;;11.04;100.00;95536.39;646202;212;31843;-76
2022/01/03 08:55:08;;;;;;;0.50;0.30;;;10.10;1.40;;;11.03;100.00;95526.91;646818;216;32053;-75
2022/01/03 08:57:51;;;;;;;1.80;0.57;;;10.20;1.40;;;11.14;100.00;95529.50;646150;216;31507;-75
2022/01/03 09:00:31;;;;;;;1.87;0.40;;;10.20;1.40;;;11.11;100.00;95515.88;645903;216;31724;-75
2022/01/03 09:03:13;;;;;;;0.50;0.30;;;10.20;1.40;;;11.13;100.00;95520.56;647005;212;31523;-76
2022/01/03 09:05:55;;;;;;;1.40;0.40;;;10.20;1.40;;;11.19;100.00;95517.14;618257;222;32065;-75
2022/01/03 09:08:36;;;;;;;1.90;0.60;;;10.20;1.40;;;11.12;100.00;95517.64;645580;216;31640;-76
2022/01/03 09:11:18;;;;;;;0.50;0.30;;;10.20;1.40;;;11.16;100.00;95520.95;646832;212;31515;-76
2022/01/03 09:13:59;;;;;;;0.73;0.30;;;10.30;1.40;;;11.15;100.00;95531.14;646472;212;31832;-76
2022/01/03 09:16:41;;;;;;;1.40;0.40;;;10.30;1.40;;;11.14;100.00;95519.22;646994;216;31944;-78
2022/01/03 09:19:23;;;;;;;0.50;0.30;;;10.20;1.40;;;11.25;100.00;95536.38;645868;216;31526;-77
2022/01/03 09:22:13;;;;;;;0.80;0.33;;;10.30;1.40;;;11.24;100.00;95520.60;647235;216;31555;-76
2022/01/03 09:28:49;;;;;;;0.67;0.30;;;10.30;1.40;;;11.29;100.00;95516.09;645979;212;31501;-76
2022/01/03 09:30:22;;;;;;;0.40;0.30;;;10.50;1.40;;;11.30;100.00;95524.58;645626;216;31508;-75
2022/01/03 09:35:51;;;;;;;0.50;0.30;;;10.50;1.40;;;11.38;100.00;95519.31;646985;216;31475;-79
2022/01/03 09:38:34;;;;;;;1.10;0.40;;;10.60;1.40;;;11.38;100.00;95518.66;646771;216;31506;-75
2022/01/03 09:41:15;;;;;;;0.40;0.30;;;10.50;1.40;;;11.33;100.00;95532.77;641069;215;31986;-76
2022/01/03 09:43:56;;;;;;;1.10;0.40;;;10.50;1.40;;;11.42;100.00;95514.66;646713;216;31517;-75
2022/01/03 09:49:12;;;;;;;0.47;0.30;;;10.60;1.40;;;11.45;100.00;95505.64;646761;216;31500;-76
2022/01/03 09:51:54;;;;;;;1.00;0.50;;;10.60;1.40;;;11.43;100.00;95511.05;646913;212;31504;-75
2022/01/03 09:54:40;;;;;;;0.50;0.50;;;10.60;1.40;;;11.43;100.00;95518.76;645691;216;31475;-77
2022/01/03 09:57:21;;;;;;;1.20;0.40;;;10.60;1.40;;;11.46;100.00;95510.40;646546;212;31761;-75
2022/01/03 10:00:04;;;;;;;1.00;0.30;;;10.60;1.40;;;11.47;100.00;95503.42;646394;216;31611;-77
2022/01/03 10:02:46;;;;;;;0.40;0.30;;;10.60;1.40;;;11.45;100.00;95513.02;619398;222;32403;-75
2022/01/03 10:05:28;;;;;;;1.60;0.50;;;10.60;1.40;;;11.50;100.00;95502.52;646629;212;32176;-76
2022/01/03 10:08:13;;;;;;;2.50;0.30;;;10.70;1.40;;;11.58;100.00;95516.80;646910;213;31581;-76
2022/01/03 10:10:54;;;;;;;0.70;0.40;;;10.80;1.40;;;11.65;100.00;95518.41;645722;212;31547;-78
2022/01/03 10:13:36;;;;;;;0.40;0.30;;;10.80;1.40;;;11.65;100.00;95508.91;646504;212;31521;-76
2022/01/03 10:16:18;;;;;;;0.50;0.40;;;10.80;1.40;;;11.61;100.00;95505.26;645983;213;31515;-76
2022/01/03 10:19:02;;;;;;;1.60;0.30;;;10.80;1.40;;;11.67;100.00;95511.46;647505;212;42114;-76
2022/01/03 10:21:44;;;;;;;0.60;0.50;;;10.80;1.40;;;11.66;100.00;95508.24;646193;212;31516;-77
2022/01/03 10:27:03;;;;;;;0.77;0.32;;;10.80;1.40;;;11.69;99.75;95500.83;646593;212;42455;-76
2022/01/03 10:29:44;;;;;;;0.40;0.20;;;10.80;1.40;;;11.71;99.09;95499.53;645888;216;32389;-75
2022/01/03 10:32:27;;;;;;;2.00;0.40;;;10.80;1.40;;;11.77;97.92;95510.81;646625;212;32212;-75
2022/01/03 10:35:50;;;;;;;2.20;0.50;;;10.80;1.40;;;11.73;98.79;95495.97;646279;216;31591;-76
2022/01/03 10:38:43;;;;;;;0.50;0.50;;;10.90;1.40;;;11.81;99.21;95496.66;619863;222;35915;-82
2022/01/03 10:41:29;;;;;;;1.50;0.30;;;10.90;1.40;;;11.70;100.00;95495.97;645547;216;31480;-77
2022/01/03 10:44:29;;;;;;;0.50;0.30;;;10.80;1.40;;;11.66;100.00;95493.73;646201;216;31477;-76
2022/01/03 10:47:13;;;;;;;0.40;0.40;;;10.80;1.40;;;11.65;100.00;95482.75;645813;216;42280;-76
2022/01/03 10:49:55;;;;;;;0.50;0.40;;;10.80;1.40;;;11.64;100.00;95488.40;646839;216;31535;-76
2022/01/03 10:52:41;;;;;;;1.40;0.30;;;10.80;1.40;;;11.54;100.00;95492.30;619748;222;31953;-79
2022/01/03 10:55:36;;;;;;;2.10;0.90;;;10.70;1.40;;;11.66;100.00;95484.05;644929;212;31501;-75
2022/01/03 10:58:17;;;;;;;1.00;0.40;;;10.80;1.40;;;11.75;100.00;95485.22;619016;225;43901;-76
2022/01/03 11:01:00;;;;;;;0.40;0.30;;;10.90;1.40;;;11.87;100.00;95480.59;646741;212;31481;-76
2022/01/03 11:03:46;;;;;;;1.50;0.50;;;11.00;1.40;;;11.90;100.00;95483.20;619274;226;42986;-76
2022/01/03 11:12:17;;;;;;;0.43;0.40;;;11.00;1.40;;;11.97;100.00;95478.39;646909;212;42490;-76
2022/01/03 11:14:59;;;;;;;1.20;0.30;;;11.00;1.40;;;11.83;100.00;95466.29;646014;216;42669;-75
2022/01/03 11:17:44;;;;;;;0.45;0.37;;;11.00;1.40;;;11.81;100.00;95466.47;634740;220;31656;-76
2022/01/03 11:20:27;;;;;;;1.33;0.50;;;11.00;1.40;;;11.86;98.84;95458.66;646844;213;32275;-75
2022/01/03 11:23:07;;;;;;;0.40;0.30;;;11.00;1.40;;;11.94;100.00;95460.98;646566;212;42125;-76
2022/01/03 11:25:51;;;;;;;0.40;0.30;;;11.10;1.40;;;12.06;100.00;95452.35;646854;212;31556;-77
2022/01/03 11:28:31;;;;;;;2.90;0.30;;;11.00;1.40;;;11.91;97.22;95441.45;646565;216;31513;-76
2022/01/03 11:31:12;;;;;;;0.90;0.30;;;11.10;1.40;;;11.87;97.67;95445.16;646623;212;31548;-76
2022/01/03 11:35:53;;;;;;;2.00;0.50;;;11.00;1.40;;;11.87;99.58;95433.42;646380;212;31539;-76
2022/01/03 11:38:37;;;;;;;0.90;0.40;;;11.00;1.40;;;11.87;99.20;95416.47;619180;222;31813;-77
2022/01/03 11:43:55;;;;;;;1.00;0.30;;;11.10;1.40;;;11.95;98.27;95419.55;619275;226;42678;-76
2022/01/03 11:46:47;;;;;;;0.70;0.50;;;11.00;1.40;;;11.89;98.98;95419.13;646701;216;32090;-77
2022/01/03 11:49:29;;;;;;;1.90;0.40;;;11.00;1.40;;;11.85;98.22;95416.86;619227;225;43153;-76
2022/01/03 11:54:46;;;;;;;0.80;0.40;;;10.90;1.40;;;11.75;97.61;95400.71;642149;216;31509;-77
2022/01/03 11:57:57;;;;;;;0.40;0.20;;;10.90;1.40;;;11.82;97.19;95400.86;637059;220;43480;-79
2022/01/03 12:06:10;;;;;;;1.80;0.40;;;11.00;1.40;;;11.84;94.26;95389.78;642189;212;31901;-76
2022/01/03 12:08:55;;;;;;;0.80;0.37;;;11.00;1.40;;;11.93;94.68;95399.70;648062;216;31459;-81
2022/01/03 12:11:44;;;;;;;2.10;0.30;;;11.00;1.40;;;11.94;94.96;95385.71;649103;212;42089;-81
2022/01/03 12:14:45;;;;;;;0.70;0.40;;;11.00;1.40;;;11.78;95.20;95390.04;646304;216;31482;-75
2022/01/03 12:17:42;;;;;;;0.50;0.30;;;10.90;1.40;;;11.77;95.66;95388.03;646971;212;31565;-76
2022/01/03 12:20:24;;;;;;;0.40;0.30;;;10.90;1.40;;;11.68;95.94;95385.20;646522;212;31531;-78
2022/01/03 12:23:06;;;;;;;0.50;0.20;;;10.80;1.40;;;11.66;96.94;95398.34;646483;216;31555;-76
2022/01/03 12:25:47;;;;;;;0.40;0.20;;;10.80;1.40;;;11.64;97.79;95398.13;645989;212;31508;-76
2022/01/03 12:28:29;;;;;;;1.60;0.30;;;10.80;1.40;;;11.66;98.74;95392.50;647720;216;31503;-76
2022/01/03 12:31:15;;;;;;;0.70;0.30;;;10.70;1.40;;;11.58;99.27;95389.45;647445;216;31589;-80
2022/01/03 12:35:53;;;;;;;0.50;0.30;;;10.70;1.40;;;11.48;98.76;95395.66;618557;226;32535;-76